Time;durP1;ratioP1;P1;durP2;ratioP2;P2;SDS_P1;SDS_P2;PMS_P1;PMS_P2;Temp;Humidity;BMP_temperature;BMP_pressure;BME280_temperature;BME280_humidity;BME280_pressure;Samples;Min_cycle;Max_cycle;Signal;HPM_P1;HPM_P2
2023/03/28 00:01:12;;;;;;;2.50;1.10;;;2.90;99.90;;;-141.84;68.89;19196.06;5074115;28;20230;-58
2023/03/28 00:03:41;;;;;;;3.07;1.20;;;3.00;99.90;;;-141.84;69.04;19129.00;5069929;28;20633;-58
2023/03/28 00:06:12;;;;;;;2.20;0.97;;;3.00;99.90;;;-141.84;68.67;19165.56;5070103;28;20217;-54
2023/03/28 00:08:41;;;;;;;2.43;1.20;;;3.10;99.90;;;-141.84;69.67;19126.97;5069602;28;20323;-57
2023/03/28 00:11:17;;;;;;;5.27;1.13;;;3.10;99.90;;;-141.84;71.01;19159.47;5069913;28;20231;-55
2023/03/28 00:13:49;;;;;;;4.47;1.33;;;3.00;99.90;;;-141.84;71.93;19159.47;5075359;28;20219;-55
2023/03/28 00:16:17;;;;;;;3.27;1.37;;;2.90;99.90;;;-141.84;72.70;19088.34;5090177;28;20224;-56
2023/03/28 00:18:45;;;;;;;2.10;1.00;;;2.80;99.90;;;-141.84;72.55;19129.00;5090137;28;20200;-57
2023/03/28 00:21:24;;;;;;;5.27;1.37;;;2.80;99.90;;;-141.84;73.12;19110.72;5084456;28;20641;-57
2023/03/28 00:23:55;;;;;;;2.57;1.67;;;2.70;99.90;;;-141.84;72.98;19100.53;5069269;28;20232;-57
2023/03/28 00:26:25;;;;;;;5.33;1.43;;;2.80;99.90;;;-141.84;72.17;19088.34;5069750;28;20229;-59
2023/03/28 00:28:56;;;;;;;2.63;1.40;;;2.80;99.90;;;-141.84;72.57;19143.22;5069695;28;20719;-58
2023/03/28 00:31:26;;;;;;;4.80;1.00;;;2.80;99.90;;;-141.84;71.97;19137.13;5069405;28;20231;-56
2023/03/28 00:33:55;;;;;;;5.13;1.63;;;2.80;99.90;;;-141.84;72.20;19129.00;5055171;28;20268;-57
2023/03/28 00:36:28;;;;;;;3.00;1.33;;;2.80;99.90;;;-141.84;71.90;19129.00;5049870;28;20219;-58
2023/03/28 00:38:57;;;;;;;2.83;1.30;;;2.90;99.90;;;-141.84;70.47;19131.03;5050182;28;20708;-58
2023/03/28 00:41:29;;;;;;;7.50;1.70;;;2.90;99.90;;;-141.84;70.46;19141.19;5053307;28;20339;-58
2023/03/28 00:44:01;;;;;;;2.80;1.27;;;2.90;99.90;;;-141.84;71.14;19137.13;5053304;28;20233;-58
2023/03/28 00:46:35;;;;;;;4.57;1.50;;;2.90;99.90;;;-141.84;70.61;19126.97;5053215;28;20230;-57
2023/03/28 00:49:11;;;;;;;3.63;1.37;;;3.00;99.90;;;-141.84;70.29;19145.25;5071047;28;20228;-58
2023/03/28 00:51:45;;;;;;;3.43;1.83;;;3.00;99.90;;;-141.84;70.53;19167.59;5073635;28;20238;-59
2023/03/28 00:54:19;;;;;;;4.20;1.60;;;3.10;99.90;;;-141.84;69.96;19143.22;5073044;28;20234;-57
2023/03/28 00:56:54;;;;;;;3.00;1.70;;;3.10;99.90;;;-141.84;70.34;19169.63;5072860;28;20606;-56
2023/03/28 00:59:30;;;;;;;2.50;1.40;;;3.10;99.90;;;-141.84;69.73;19139.16;5072777;28;20293;-56
2023/03/28 01:01:58;;;;;;;3.13;1.10;;;3.00;99.90;;;-141.84;69.45;19155.41;5072563;28;20224;-56
2023/03/28 01:04:36;;;;;;;2.73;1.40;;;3.10;99.90;;;-141.84;70.29;19139.16;5072650;28;20221;-56
2023/03/28 01:07:06;;;;;;;3.33;1.33;;;3.10;99.90;;;-141.84;69.96;19133.06;5072501;28;20232;-57
2023/03/28 01:09:36;;;;;;;8.70;1.83;;;3.10;99.90;;;-141.84;69.94;19147.28;5073394;28;20216;-58
2023/03/28 01:12:06;;;;;;;4.43;1.53;;;3.00;99.90;;;-141.84;70.47;19133.06;5052457;28;20238;-58
2023/03/28 01:14:38;;;;;;;5.97;1.47;;;2.90;99.90;;;-141.84;70.11;19106.66;5076671;28;20228;-56
2023/03/28 01:17:07;;;;;;;4.50;1.20;;;2.90;99.90;;;-141.84;69.78;19135.09;5090716;28;20598;-56
2023/03/28 01:19:58;;;;;;;4.10;1.33;;;2.90;99.90;;;-141.84;69.66;19126.97;5072261;28;20231;-60
2023/03/28 01:23:15;;;;;;;3.60;1.10;;;2.90;99.90;;;-141.84;69.64;19114.78;5072308;28;20227;-57
2023/03/28 01:26:32;;;;;;;6.27;1.40;;;2.80;99.90;;;-141.84;69.59;19133.06;5072337;28;20231;-59
2023/03/28 01:29:59;;;;;;;3.50;1.37;;;2.80;99.90;;;-141.84;70.13;19129.00;5065192;28;20228;-58
2023/03/28 01:33:20;;;;;;;5.43;1.23;;;2.80;99.90;;;-141.84;69.56;19122.91;5051868;28;20261;-57
2023/03/28 01:36:50;;;;;;;3.90;1.50;;;2.80;99.90;;;-141.84;69.78;19106.66;5051920;28;20279;-57
2023/03/28 01:39:36;;;;;;;3.83;1.40;;;2.80;99.90;;;-141.84;69.65;19143.22;4994385;28;20220;-59
2023/03/28 01:42:19;;;;;;;5.10;1.70;;;2.90;99.90;;;-141.84;68.13;19118.84;5032116;28;20240;-57
2023/03/28 01:45:00;;;;;;;5.00;1.50;;;3.00;99.90;;;-141.84;67.80;19126.97;5049348;28;20226;-56
2023/03/28 01:47:37;;;;;;;7.23;1.60;;;3.10;99.90;;;-141.84;68.38;19143.22;5056522;28;20223;-57
2023/03/28 01:50:17;;;;;;;4.63;1.67;;;3.10;99.90;;;-141.84;68.87;19141.19;5071719;28;20314;-58
2023/03/28 01:52:56;;;;;;;8.10;1.70;;;3.20;99.90;;;-141.84;68.49;19177.75;5071812;28;20599;-58
2023/03/28 01:55:35;;;;;;;3.20;1.60;;;3.10;99.90;;;-141.84;68.70;19171.66;5071698;28;20373;-57
2023/03/28 01:58:20;;;;;;;5.37;2.10;;;3.10;99.90;;;-141.84;68.96;19126.97;5072107;28;20282;-55
2023/03/28 02:00:55;;;;;;;4.97;2.00;;;3.10;99.90;;;-141.84;67.96;19161.50;5071642;28;20249;-58
2023/03/28 02:03:31;;;;;;;4.23;1.53;;;3.30;99.90;;;-141.84;68.86;19135.09;5072142;28;20188;-71
2023/03/28 02:06:06;;;;;;;4.77;1.87;;;3.20;99.90;;;-141.84;69.83;19112.75;5071553;28;20224;-56
2023/03/28 02:08:39;;;;;;;7.27;2.20;;;3.10;99.90;;;-141.84;69.83;19131.03;5071229;28;20231;-57
2023/03/28 02:11:10;;;;;;;6.40;1.90;;;3.10;99.90;;;-141.84;70.35;19143.22;5071207;28;20229;-58
2023/03/28 02:13:45;;;;;;;8.40;2.00;;;3.00;99.90;;;-141.84;70.13;19147.28;5071129;28;20232;-56
2023/03/28 02:16:17;;;;;;;6.17;1.83;;;3.00;99.90;;;-141.84;71.28;19169.63;5071130;28;20220;-58
2023/03/28 02:18:54;;;;;;;5.30;1.90;;;3.00;99.90;;;-141.84;71.46;19129.00;5071347;28;20199;-58
2023/03/28 02:21:29;;;;;;;9.37;2.17;;;2.90;99.90;;;-141.84;71.73;19096.47;5071230;28;20624;-56
2023/03/28 02:23:58;;;;;;;6.47;2.07;;;2.80;99.90;;;-141.84;71.85;19088.34;5071186;28;20228;-56
2023/03/28 02:26:28;;;;;;;4.03;1.80;;;2.80;99.90;;;-141.84;71.42;19084.28;5056408;28;20228;-57
2023/03/28 02:28:59;;;;;;;8.33;2.20;;;2.70;99.90;;;-141.84;71.05;19122.91;5051272;28;20229;-59
2023/03/28 02:31:27;;;;;;;3.30;1.57;;;2.80;99.90;;;-141.84;71.21;19110.72;5068347;28;20239;-58
2023/03/28 02:33:57;;;;;;;7.57;2.20;;;2.80;99.90;;;-141.84;71.08;19145.25;5070770;28;20854;-57
2023/03/28 02:36:38;;;;;;;6.03;1.87;;;2.90;99.90;;;-141.84;70.54;19124.94;5071146;28;20679;-58
2023/03/28 02:39:45;;;;;;;6.50;2.20;;;2.90;99.90;;;-141.84;70.04;19131.03;5051368;28;20205;-57
2023/03/28 02:42:55;;;;;;;5.27;1.60;;;3.00;99.90;;;-141.84;69.79;19171.66;5050337;28;20224;-58
2023/03/28 02:46:07;;;;;;;4.37;1.90;;;3.10;99.90;;;-141.84;69.57;19143.22;5016845;28;20296;-57
2023/03/28 02:48:55;;;;;;;5.57;2.00;;;3.10;99.90;;;-141.84;70.36;19133.06;5057943;28;20235;-55
2023/03/28 02:51:33;;;;;;;6.17;1.90;;;3.10;99.90;;;-141.84;70.05;19126.97;5070945;28;20630;-57
2023/03/28 02:54:23;;;;;;;5.43;2.30;;;3.10;99.90;;;-141.84;69.82;19118.84;5050848;28;20235;-56
2023/03/28 02:57:02;;;;;;;5.67;2.13;;;3.00;99.90;;;-141.84;70.24;19137.13;5050651;28;20255;-57
2023/03/28 02:59:41;;;;;;;7.23;2.20;;;2.90;99.90;;;-141.84;71.12;19133.06;5050609;28;20275;-57
2023/03/28 03:02:16;;;;;;;5.17;2.57;;;2.80;99.90;;;-141.84;70.82;19120.88;5049547;28;20266;-58
2023/03/28 03:04:45;;;;;;;4.50;2.13;;;2.80;99.90;;;-141.84;71.49;19084.28;5059277;28;20223;-56
2023/03/28 03:07:16;;;;;;;5.77;2.20;;;2.70;99.90;;;-141.84;71.71;19080.22;5070475;28;20704;-59
2023/03/28 03:09:45;;;;;;;6.73;2.13;;;2.60;99.90;;;-141.84;71.39;19129.00;5070851;28;20188;-57
2023/03/28 03:12:14;;;;;;;4.47;2.30;;;2.60;99.90;;;-141.84;71.89;19106.66;5070718;28;20661;-56
2023/03/28 03:14:43;;;;;;;6.17;2.20;;;2.60;99.90;;;-141.84;71.81;19106.66;5070073;28;20231;-58
2023/03/28 03:17:11;;;;;;;6.17;2.30;;;2.50;99.90;;;-141.84;72.11;19118.84;5069974;28;20232;-57
2023/03/28 03:19:39;;;;;;;5.77;2.00;;;2.40;99.90;;;-141.84;72.65;19080.22;5062151;28;20225;-57
2023/03/28 03:22:11;;;;;;;4.77;2.20;;;2.40;99.90;;;-141.84;72.49;19059.91;5039664;28;20301;-71
2023/03/28 03:24:49;;;;;;;7.17;2.37;;;2.30;99.90;;;-141.84;72.29;19055.84;5031628;28;20732;-70
2023/03/28 03:27:19;;;;;;;5.23;2.17;;;2.30;99.90;;;-141.84;72.37;19108.69;5050686;28;20202;-71
2023/03/28 03:29:48;;;;;;;4.43;2.33;;;2.40;99.90;;;-141.84;73.06;19059.91;5036679;28;20278;-71
2023/03/28 03:32:16;;;;;;;5.60;2.17;;;2.30;99.90;;;-141.84;73.29;19108.69;5062899;28;20233;-71
2023/03/28 03:34:44;;;;;;;6.50;2.40;;;2.20;99.90;;;-141.84;72.87;19110.72;5070073;28;20228;-70
2023/03/28 03:37:13;;;;;;;6.10;2.50;;;2.20;99.90;;;-141.84;72.65;19070.06;5070138;28;20616;-71
2023/03/28 03:39:41;;;;;;;7.27;2.40;;;2.20;99.90;;;-141.84;73.12;19057.88;5070527;28;20215;-69
2023/03/28 03:42:09;;;;;;;6.83;1.83;;;2.20;99.90;;;-141.84;73.25;19066.00;5070530;28;20219;-70
2023/03/28 03:44:37;;;;;;;6.93;2.30;;;2.20;99.90;;;-141.84;72.77;19066.00;5070250;28;20224;-72
2023/03/28 03:47:07;;;;;;;4.37;1.93;;;2.20;99.90;;;-141.84;72.94;19110.72;5069588;28;20231;-71
2023/03/28 03:49:35;;;;;;;8.53;2.30;;;2.20;99.90;;;-141.84;72.50;19076.16;5070021;28;20231;-71
2023/03/28 03:52:03;;;;;;;8.70;2.20;;;2.30;99.90;;;-141.84;72.69;19076.16;5070040;28;20250;-70
2023/03/28 03:54:32;;;;;;;5.63;2.30;;;2.20;99.90;;;-141.84;72.66;19092.41;5070575;28;20232;-71
2023/03/28 03:57:02;;;;;;;5.03;2.23;;;2.20;99.90;;;-141.84;72.66;19082.25;5069663;28;20300;-71
2023/03/28 03:59:30;;;;;;;6.30;2.17;;;2.30;99.90;;;-141.84;72.78;19070.06;5069845;28;20281;-72
2023/03/28 04:01:59;;;;;;;7.97;2.33;;;2.20;99.90;;;-141.84;72.95;19086.31;5069678;28;20254;-72
2023/03/28 04:04:29;;;;;;;8.40;2.57;;;2.20;99.90;;;-141.84;73.01;19098.50;5069737;28;20225;-71
2023/03/28 04:06:57;;;;;;;4.60;2.37;;;2.20;99.90;;;-141.84;73.17;19047.72;5070063;28;20209;-71
2023/03/28 04:09:26;;;;;;;6.77;2.87;;;2.20;99.90;;;-141.84;73.43;19070.06;5070253;28;20247;-72
2023/03/28 04:11:55;;;;;;;7.93;2.50;;;2.10;99.90;;;-141.84;73.20;19094.44;5069437;28;20237;-72
2023/03/28 04:14:24;;;;;;;5.60;2.67;;;2.20;99.90;;;-141.84;73.40;19104.59;5071084;28;20224;-71
2023/03/28 04:16:52;;;;;;;6.30;2.40;;;2.20;99.90;;;-141.84;73.29;19055.84;5073245;28;20235;-71
2023/03/28 04:19:23;;;;;;;7.00;2.60;;;2.20;99.90;;;-141.84;72.27;19088.34;5073793;28;20248;-71
2023/03/28 04:21:55;;;;;;;6.73;2.63;;;2.30;99.90;;;-141.84;71.64;19114.78;5062803;28;20197;-72
2023/03/28 04:24:24;;;;;;;4.67;2.33;;;2.40;99.90;;;-141.84;72.27;19088.34;5054084;28;20227;-71
2023/03/28 04:26:54;;;;;;;6.33;2.37;;;2.40;99.90;;;-141.84;72.78;19074.13;5053639;28;20224;-71
2023/03/28 04:29:29;;;;;;;10.67;3.37;;;2.40;99.90;;;-141.84;72.73;19102.56;5054118;28;20225;-71
2023/03/28 04:31:57;;;;;;;5.17;2.60;;;2.40;99.90;;;-141.84;71.90;19114.78;5073027;28;20227;-71
2023/03/28 04:34:28;;;;;;;7.67;2.73;;;2.30;99.90;;;-141.84;71.32;19096.47;5073287;28;20598;-71
2023/03/28 04:37:00;;;;;;;6.07;2.90;;;2.40;99.90;;;-141.84;71.66;19106.66;5073601;28;20190;-71
2023/03/28 04:39:30;;;;;;;10.47;2.60;;;2.30;99.90;;;-141.84;72.62;19078.19;5073657;28;20638;-72
2023/03/28 04:42:00;;;;;;;8.13;2.87;;;2.20;99.90;;;-141.84;72.61;19070.06;5073284;28;20223;-71
2023/03/28 04:44:29;;;;;;;5.67;2.50;;;2.10;99.90;;;-141.84;72.75;19047.72;5073047;28;20727;-72
2023/03/28 04:46:58;;;;;;;6.10;2.77;;;2.10;99.90;;;-141.84;71.76;19098.50;5072793;28;20236;-72
2023/03/28 04:49:26;;;;;;;7.83;2.43;;;2.20;99.90;;;-141.84;71.33;19074.13;5073956;28;20735;-72
2023/03/28 04:51:54;;;;;;;5.27;2.80;;;2.20;99.90;;;-141.84;70.00;19108.69;5075528;28;20204;-71
2023/03/28 04:54:24;;;;;;;6.17;2.50;;;2.40;99.90;;;-141.84;70.57;19084.28;5075749;28;20201;-72
2023/03/28 04:56:52;;;;;;;6.47;2.87;;;2.40;99.90;;;-141.84;70.60;19086.31;5075486;28;20228;-71
2023/03/28 04:59:20;;;;;;;5.90;2.93;;;2.40;99.90;;;-141.84;70.98;19102.56;5075033;28;20279;-70
2023/03/28 05:01:49;;;;;;;5.07;2.50;;;2.50;99.90;;;-141.84;70.77;19104.59;5074422;28;20239;-72
2023/03/28 05:04:18;;;;;;;6.30;2.80;;;2.40;99.90;;;-141.84;71.30;19090.38;5073944;28;20274;-71
2023/03/28 05:06:48;;;;;;;8.97;3.20;;;2.50;99.90;;;-141.84;71.47;19106.66;5074576;28;20287;-71
2023/03/28 05:09:17;;;;;;;5.73;3.43;;;2.40;99.90;;;-141.84;71.94;19078.19;5074908;28;20189;-71
2023/03/28 05:11:46;;;;;;;10.33;3.77;;;2.40;99.90;;;-141.84;71.67;19088.34;5073328;28;20231;-72
2023/03/28 05:14:15;;;;;;;8.50;3.10;;;2.40;99.90;;;-141.84;72.13;19100.53;5066959;28;20228;-72
2023/03/28 05:16:43;;;;;;;6.80;2.70;;;2.40;99.90;;;-141.84;72.87;19066.00;5053092;28;20233;-71
2023/03/28 05:19:11;;;;;;;8.93;3.60;;;2.30;99.90;;;-141.84;73.31;19068.03;5053438;28;20217;-71
2023/03/28 05:21:40;;;;;;;10.00;3.50;;;2.20;99.90;;;-141.84;73.94;19027.41;5053072;28;20661;-72
2023/03/28 05:24:10;;;;;;;6.43;3.60;;;2.10;99.90;;;-141.84;73.62;19047.72;5033667;28;20238;-72
2023/03/28 05:26:38;;;;;;;8.23;4.07;;;2.10;99.90;;;-141.84;74.08;19084.28;5033060;28;20771;-71
2023/03/28 05:29:08;;;;;;;8.07;3.20;;;2.10;99.90;;;-141.84;74.08;19039.59;5033288;28;20237;-71
2023/03/28 05:31:36;;;;;;;7.50;3.40;;;2.00;99.90;;;-141.84;73.52;19059.91;5051161;28;20236;-72
2023/03/28 05:34:04;;;;;;;5.97;3.40;;;2.00;99.90;;;-141.84;73.29;19057.88;5051737;28;20221;-72
2023/03/28 05:36:32;;;;;;;8.17;3.70;;;2.00;99.90;;;-141.84;72.84;19076.16;5052700;28;20221;-70
2023/03/28 05:39:00;;;;;;;6.97;3.40;;;2.10;99.90;;;-141.84;73.14;19045.69;5052064;28;20229;-72
2023/03/28 05:41:29;;;;;;;10.23;3.33;;;2.10;99.90;;;-141.84;73.31;19106.66;5051973;28;20605;-72
2023/03/28 05:43:57;;;;;;;6.83;3.77;;;2.10;99.90;;;-141.84;72.16;19092.41;5051986;28;20308;-73
2023/03/28 05:46:26;;;;;;;11.13;3.57;;;2.30;99.90;;;-141.84;70.55;19118.84;5052048;28;20232;-72
2023/03/28 05:48:54;;;;;;;8.30;3.23;;;2.50;99.90;;;-141.84;70.09;19137.13;5051978;28;20193;-72
2023/03/28 05:51:23;;;;;;;8.10;3.80;;;2.60;99.90;;;-141.84;70.53;19110.72;5052293;28;20684;-69
2023/03/28 05:53:51;;;;;;;8.67;4.43;;;2.60;99.90;;;-141.84;71.06;19090.38;5051635;28;20225;-70
2023/03/28 05:56:19;;;;;;;9.50;3.67;;;2.70;99.90;;;-141.84;71.12;19114.78;5051773;28;20233;-72
2023/03/28 05:58:48;;;;;;;9.03;4.47;;;2.60;99.90;;;-141.84;71.83;19082.25;5051514;28;20229;-70
2023/03/28 06:01:16;;;;;;;9.10;4.07;;;2.60;99.90;;;-141.84;70.99;19116.81;5051198;28;20221;-70
2023/03/28 06:03:46;;;;;;;9.70;4.40;;;2.70;99.90;;;-141.84;71.37;19096.47;5051905;28;20572;-71
2023/03/28 06:06:16;;;;;;;9.00;3.50;;;2.60;99.90;;;-141.84;71.49;19135.09;5052270;28;20243;-70
2023/03/28 06:08:45;;;;;;;6.97;3.80;;;2.80;99.90;;;-141.84;71.55;19082.25;5050498;28;20255;-69
2023/03/28 06:11:14;;;;;;;7.43;3.87;;;2.80;99.90;;;-141.84;71.35;19102.56;5050097;28;20254;-70
2023/03/28 06:13:42;;;;;;;6.93;4.30;;;2.80;99.90;;;-141.84;70.53;19145.25;5050923;28;20228;-70
2023/03/28 06:16:10;;;;;;;9.00;4.40;;;2.90;99.90;;;-141.84;70.52;19124.94;5054189;28;20243;-70
2023/03/28 06:18:39;;;;;;;8.93;4.80;;;2.90;99.90;;;-141.84;71.23;19116.81;5070832;28;20320;-69
2023/03/28 06:21:08;;;;;;;7.87;4.07;;;2.90;99.90;;;-141.84;70.18;19151.34;5046223;28;20301;-70
2023/03/28 06:23:36;;;;;;;5.70;3.57;;;3.00;99.90;;;-141.84;69.59;19135.09;5046487;28;20237;-71
2023/03/28 06:26:05;;;;;;;7.17;4.20;;;3.10;99.90;;;-141.84;67.86;19187.91;5038810;28;20226;-70
2023/03/28 06:28:33;;;;;;;6.53;3.40;;;3.30;99.90;;;-141.84;68.09;19133.06;5030522;28;20221;-70
2023/03/28 06:31:01;;;;;;;6.57;3.60;;;3.30;99.90;;;-141.84;68.43;19147.28;5046647;28;20230;-68
2023/03/28 06:33:30;;;;;;;7.37;3.63;;;3.20;99.90;;;-141.84;68.89;19122.91;5070518;28;20208;-69
2023/03/28 06:35:58;;;;;;;10.40;3.80;;;3.20;99.90;;;-141.84;69.49;19155.41;5069734;28;20228;-69
2023/03/28 06:38:28;;;;;;;7.10;3.40;;;3.10;99.90;;;-141.84;69.97;19155.41;5069568;28;20252;-68
2023/03/28 06:40:56;;;;;;;5.37;3.23;;;3.10;99.90;;;-141.84;70.53;19131.03;5069538;28;20300;-68
2023/03/28 06:43:25;;;;;;;6.10;3.43;;;3.10;99.90;;;-141.84;69.33;19151.34;5069796;28;20217;-69
2023/03/28 06:45:54;;;;;;;6.83;3.67;;;3.20;99.90;;;-141.84;68.39;19171.66;5069566;28;20224;-68
2023/03/28 06:48:22;;;;;;;7.10;3.77;;;3.30;99.90;;;-141.84;68.24;19157.44;5070430;28;20202;-69
2023/03/28 06:50:50;;;;;;;8.23;3.53;;;3.40;99.90;;;-141.84;68.54;19173.69;5069251;28;20229;-69
2023/03/28 06:53:19;;;;;;;7.30;3.30;;;3.40;99.90;;;-141.84;67.51;19196.06;5069385;28;20233;-68
2023/03/28 06:55:50;;;;;;;7.87;3.03;;;3.60;99.90;;;-141.84;65.75;19222.47;5069196;28;20241;-69
2023/03/28 06:58:18;;;;;;;7.50;3.07;;;3.70;99.90;;;-141.84;65.09;19220.44;5069595;28;20224;-71
2023/03/28 07:00:47;;;;;;;7.83;3.37;;;3.80;99.90;;;-141.84;65.25;19181.81;5061199;28;20202;-68
2023/03/28 07:03:15;;;;;;;6.00;2.80;;;3.90;99.90;;;-141.84;63.99;19161.50;5045019;28;20207;-68
2023/03/28 07:05:44;;;;;;;5.87;2.60;;;3.90;99.90;;;-141.84;64.29;19208.25;5066147;28;20255;-67
2023/03/28 07:08:14;;;;;;;7.63;3.23;;;3.80;99.90;;;-141.84;65.05;19200.13;5050481;28;20604;-68
2023/03/28 07:10:43;;;;;;;8.90;3.13;;;3.90;99.90;;;-141.84;63.82;19206.22;5057691;28;20226;-68
2023/03/28 07:13:13;;;;;;;4.37;2.60;;;3.90;99.90;;;-141.84;64.08;19214.34;5069486;28;20225;-69
2023/03/28 07:15:42;;;;;;;7.87;2.90;;;3.90;99.90;;;-141.84;63.00;19236.69;5069512;28;20197;-67
2023/03/28 07:18:10;;;;;;;8.17;2.77;;;3.90;99.90;;;-141.84;62.42;19238.72;5069601;28;20435;-68
2023/03/28 07:20:39;;;;;;;9.63;3.00;;;4.00;99.90;;;-141.84;62.40;19230.59;5068978;28;20259;-68
2023/03/28 07:23:07;;;;;;;6.50;2.90;;;4.10;99.90;;;-141.84;61.59;19240.75;5069189;28;20238;-70
2023/03/28 07:25:35;;;;;;;6.70;2.33;;;4.30;99.90;;;-141.84;61.11;19257.00;5069761;28;20234;-68
2023/03/28 07:28:03;;;;;;;3.40;2.17;;;4.10;99.90;;;-141.84;59.96;19244.81;5070345;28;20262;-69
2023/03/28 07:30:33;;;;;;;8.13;2.70;;;4.20;99.90;;;-141.84;60.17;19248.88;5069881;28;20213;-68
2023/03/28 07:33:01;;;;;;;10.70;2.80;;;4.20;99.90;;;-141.84;60.12;19226.53;5070159;28;20422;-67
2023/03/28 07:35:41;;;;;;;5.40;2.50;;;4.30;99.90;;;-141.84;59.64;19285.47;5068864;28;20237;-68
2023/03/28 07:38:10;;;;;;;5.70;2.57;;;4.40;99.90;;;-141.84;60.35;19252.94;5069385;28;20313;-69
2023/03/28 07:40:38;;;;;;;6.27;2.50;;;4.50;99.90;;;-141.84;58.22;19285.47;5069178;28;20266;-69
2023/03/28 07:43:06;;;;;;;6.63;2.87;;;4.60;99.90;;;-141.84;57.75;19297.66;5069236;28;20326;-69
2023/03/28 07:45:36;;;;;;;3.87;2.47;;;4.60;99.90;;;-141.84;56.84;19324.06;5069561;28;20218;-68
2023/03/28 07:48:04;;;;;;;5.93;2.40;;;4.60;99.90;;;-141.84;54.87;19317.97;5069698;28;20228;-70
2023/03/28 07:50:33;;;;;;;3.93;2.40;;;4.80;99.90;;;-141.84;55.69;19326.09;5069555;28;20273;-69
2023/03/28 07:53:01;;;;;;;5.63;2.27;;;4.60;99.90;;;-141.84;56.05;19311.88;5069585;28;20235;-68
2023/03/28 07:55:30;;;;;;;4.23;2.13;;;4.70;99.90;;;-141.84;55.98;19322.03;5070135;28;20222;-68
2023/03/28 07:58:02;;;;;;;4.80;2.30;;;4.70;99.90;;;-141.84;55.45;19309.84;5070081;28;20307;-69
2023/03/28 08:00:31;;;;;;;6.27;2.27;;;4.80;99.90;;;-141.84;56.10;19315.94;5070162;28;20206;-68
2023/03/28 08:03:00;;;;;;;7.07;2.57;;;4.70;99.90;;;-141.84;55.20;19311.88;5063253;28;20766;-69
2023/03/28 08:05:28;;;;;;;3.20;2.00;;;4.80;99.90;;;-141.84;52.59;19320.00;5049835;28;20306;-69
2023/03/28 08:07:58;;;;;;;4.93;2.30;;;4.60;99.90;;;-141.84;54.05;19315.94;5048781;28;20248;-70
2023/03/28 08:10:26;;;;;;;4.27;2.27;;;4.50;99.90;;;-141.84;53.56;19320.00;5056212;28;20230;-69
2023/03/28 08:12:54;;;;;;;5.20;2.50;;;4.60;99.90;;;-141.84;54.11;19342.34;5070079;28;20206;-68
2023/03/28 08:15:22;;;;;;;5.10;2.00;;;4.50;99.90;;;-141.84;53.41;19358.63;5070501;28;20204;-69
2023/03/28 08:17:51;;;;;;;4.77;2.13;;;4.60;99.90;;;-141.84;52.75;19330.16;5069748;28;20228;-67
2023/03/28 08:20:20;;;;;;;4.90;2.10;;;4.60;99.90;;;-141.84;52.02;19356.59;5069827;28;20257;-70
2023/03/28 08:22:49;;;;;;;3.53;2.00;;;4.80;99.90;;;-141.84;52.33;19354.56;5069259;28;20230;-68
2023/03/28 08:25:18;;;;;;;2.97;1.93;;;5.00;99.90;;;-141.84;52.32;19344.41;5069936;28;20222;-69
2023/03/28 08:27:46;;;;;;;4.00;1.83;;;5.10;99.90;;;-141.84;51.34;19393.16;5069844;28;20202;-68
2023/03/28 08:30:14;;;;;;;2.10;1.50;;;5.10;99.90;;;-141.84;49.14;19366.75;5069781;28;20552;-69
2023/03/28 08:32:42;;;;;;;3.93;1.23;;;5.20;99.90;;;-141.84;49.05;19364.72;5069426;28;20230;-69
2023/03/28 08:35:14;;;;;;;2.40;1.40;;;5.10;99.90;;;-141.84;47.66;19393.16;5069618;28;20236;-69
2023/03/28 08:37:43;;;;;;;2.27;1.40;;;5.10;99.90;;;-141.84;48.25;19407.38;5069506;28;20268;-68
2023/03/28 08:40:17;;;;;;;3.00;1.60;;;5.20;99.90;;;-141.84;47.93;19407.38;5069466;28;20226;-69
2023/03/28 08:43:16;;;;;;;1.93;1.37;;;5.30;99.90;;;-141.84;47.29;19431.78;5069759;28;20184;-67
2023/03/28 08:45:52;;;;;;;3.53;1.53;;;5.50;99.90;;;-141.84;48.12;19391.13;5069955;28;20507;-69
2023/03/28 08:48:26;;;;;;;6.53;1.87;;;5.50;99.90;;;-141.84;49.02;19456.16;5069568;28;20208;-68
2023/03/28 08:51:04;;;;;;;4.70;2.03;;;5.80;99.90;;;-141.84;48.78;19439.91;5069714;28;20230;-69
2023/03/28 08:53:42;;;;;;;2.87;1.90;;;5.90;99.90;;;-141.84;48.79;19419.59;5069140;28;20232;-68
2023/03/28 08:56:15;;;;;;;2.53;2.07;;;6.00;99.90;;;-141.84;48.92;19504.94;5069847;28;20235;-69
2023/03/28 08:58:53;;;;;;;3.27;1.73;;;6.00;99.90;;;-141.84;49.10;19484.59;5067195;28;20231;-69
2023/03/28 09:01:22;;;;;;;6.47;2.10;;;6.10;99.90;;;-141.84;48.55;19509.00;5066777;28;20224;-69
2023/03/28 09:03:50;;;;;;;4.57;1.97;;;6.30;99.90;;;-141.84;48.34;19517.13;5071944;28;20204;-71
2023/03/28 09:06:29;;;;;;;2.90;2.10;;;6.30;99.90;;;-141.84;47.79;19555.75;5074666;28;20205;-68
2023/03/28 09:09:32;;;;;;;5.13;2.20;;;6.60;99.90;;;-141.84;45.70;19608.56;5074901;28;20302;-68
2023/03/28 09:12:26;;;;;;;2.70;2.00;;;7.00;99.90;;;-141.84;43.76;19610.59;5074777;28;20231;-69
2023/03/28 09:15:25;;;;;;;5.03;2.07;;;7.10;99.90;;;-141.84;44.33;19559.81;5074471;28;20220;-69
2023/03/28 09:18:30;;;;;;;4.87;2.10;;;7.00;99.90;;;-141.84;44.67;19549.63;5074122;28;20247;-69
2023/03/28 09:21:07;;;;;;;3.53;2.30;;;7.10;99.90;;;-141.84;44.55;19588.25;5072545;28;20212;-69
2023/03/28 09:24:05;;;;;;;5.30;2.13;;;7.10;99.90;;;-141.84;44.02;19578.09;5072196;28;20258;-69
2023/03/28 09:26:40;;;;;;;4.13;1.90;;;7.20;99.90;;;-141.84;44.42;19580.13;5072432;28;20224;-69
2023/03/28 09:29:17;;;;;;;3.33;2.10;;;7.20;99.90;;;-141.84;44.71;19608.56;5072441;28;20220;-68
2023/03/28 09:31:49;;;;;;;3.40;1.90;;;7.10;99.90;;;-141.84;45.54;19596.38;5072193;28;20231;-69
2023/03/28 09:34:26;;;;;;;4.27;2.30;;;7.10;99.90;;;-141.84;46.15;19561.84;5072356;28;20227;-69
2023/03/28 09:37:02;;;;;;;2.77;1.90;;;7.10;99.90;;;-141.84;46.00;19614.66;5072456;28;20188;-68
2023/03/28 09:39:37;;;;;;;4.57;1.93;;;7.10;99.90;;;-141.84;44.54;19635.00;5072656;28;20205;-69
2023/03/28 09:42:15;;;;;;;4.90;2.10;;;7.30;99.90;;;-141.84;44.45;19651.25;5073468;28;20231;-68
2023/03/28 09:44:57;;;;;;;4.13;2.30;;;7.40;99.90;;;-141.84;45.51;19608.56;5073008;28;20884;-68
2023/03/28 09:47:26;;;;;;;3.40;1.80;;;7.30;99.90;;;-141.84;45.38;19643.13;5073081;28;20274;-68
2023/03/28 09:49:54;;;;;;;4.43;2.37;;;7.30;99.90;;;-141.84;45.74;19596.38;5072569;28;20252;-69
2023/03/28 09:52:40;;;;;;;5.00;2.00;;;7.20;99.90;;;-141.84;44.98;19620.78;5071969;28;20232;-69
2023/03/28 09:55:18;;;;;;;2.70;2.00;;;7.20;99.90;;;-141.84;44.67;19667.50;5068786;28;20250;-69
2023/03/28 09:58:07;;;;;;;2.23;1.77;;;7.50;99.90;;;-141.84;42.80;19724.41;5052327;28;20259;-69
2023/03/28 10:00:39;;;;;;;3.43;1.90;;;7.80;99.90;;;-141.84;42.61;19734.56;5062540;28;20201;-69
2023/03/28 10:03:22;;;;;;;2.93;1.83;;;8.20;99.90;;;-141.84;42.39;19785.38;5071960;28;20549;-68
2023/03/28 10:05:51;;;;;;;1.87;1.77;;;8.30;99.90;;;-141.84;42.12;19813.84;5071764;28;20235;-69
2023/03/28 10:08:25;;;;;;;5.07;1.83;;;8.50;99.90;;;-141.84;42.19;19797.59;5071901;28;20667;-69
2023/03/28 10:11:01;;;;;;;2.80;1.80;;;8.50;99.90;;;-141.84;42.48;19763.03;5071903;28;20236;-69
2023/03/28 10:13:37;;;;;;;2.03;1.50;;;8.50;99.90;;;-141.84;41.92;19718.31;5071101;28;20220;-69
2023/03/28 10:16:07;;;;;;;4.93;2.03;;;8.30;99.90;;;-141.84;42.39;19695.97;5071642;28;20219;-68
2023/03/28 10:18:39;;;;;;;2.97;2.20;;;8.00;99.90;;;-141.84;43.54;19710.19;5071635;28;20220;-68
2023/03/28 10:21:14;;;;;;;2.90;1.90;;;7.80;99.90;;;-141.84;43.61;19726.44;5087436;28;20273;-69
2023/03/28 10:23:50;;;;;;;2.07;1.50;;;7.80;99.90;;;-141.84;42.01;19689.88;5054199;28;20240;-68
2023/03/28 10:26:26;;;;;;;4.70;1.70;;;7.80;99.90;;;-141.84;42.19;19667.50;5051416;28;20712;-68
2023/03/28 10:29:01;;;;;;;2.60;1.73;;;7.90;99.90;;;-141.84;42.33;19663.44;5051411;28;20225;-69
2023/03/28 10:31:33;;;;;;;4.37;1.67;;;7.70;99.90;;;-141.84;42.65;19698.00;5051267;28;20235;-68
2023/03/28 10:34:02;;;;;;;4.40;2.00;;;7.70;99.90;;;-141.84;42.95;19661.41;5054382;28;20235;-69
2023/03/28 10:36:36;;;;;;;3.80;1.87;;;7.70;99.90;;;-141.84;44.07;19622.81;5071564;28;20208;-70
2023/03/28 10:39:23;;;;;;;3.97;1.90;;;7.50;99.90;;;-141.84;44.73;19576.06;5051086;28;20239;-69